createdAt,value
2023-01-07T10:30:25.993Z,-7.60
2023-01-07T10:33:12.289Z,-7.50
2023-01-07T10:35:41.288Z,-7.40
2023-01-07T10:38:16.119Z,-7.50
2023-01-07T10:41:07.362Z,-7.30
2023-01-07T10:44:07.593Z,-7.20
2023-01-07T10:46:56.063Z,-7.00
2023-01-07T10:49:36.903Z,-6.90
2023-01-07T10:52:03.920Z,-6.80
2023-01-07T10:54:54.014Z,-6.40
2023-01-07T10:57:24.067Z,-6.40
2023-01-07T10:59:54.154Z,-6.20
2023-01-07T11:02:27.565Z,-6.20
2023-01-07T11:04:56.481Z,-6.20
2023-01-07T11:07:28.073Z,-6.10
2023-01-07T11:09:57.227Z,-6.20
2023-01-07T11:12:36.987Z,-6.20
2023-01-07T11:15:19.359Z,-6.30
2023-01-07T11:17:57.498Z,-6.40
2023-01-07T11:20:44.462Z,-6.40
2023-01-07T11:23:29.549Z,-6.40
2023-01-07T11:26:11.231Z,-6.50
2023-01-07T11:28:43.591Z,-6.50
2023-01-07T11:31:10.886Z,-6.40
2023-01-07T11:34:02.776Z,-6.30
2023-01-07T11:36:44.799Z,-6.20
2023-01-07T11:39:19.407Z,-6.20
2023-01-07T11:42:23.092Z,-6.20
2023-01-07T11:44:50.381Z,-6.20
2023-01-07T11:47:18.656Z,-6.30
2023-01-07T11:49:46.565Z,-6.40
2023-01-07T11:52:20.504Z,-6.50
2023-01-07T11:54:54.454Z,-6.60
2023-01-07T11:57:25.439Z,-6.60
2023-01-07T12:00:11.385Z,-6.70
2023-01-07T12:02:38.359Z,-6.70
2023-01-07T12:05:22.899Z,-6.60
2023-01-07T12:07:51.573Z,-6.60
2023-01-07T12:10:39.517Z,-6.50
2023-01-07T12:13:18.330Z,-6.60
2023-01-07T12:15:55.426Z,-6.50
2023-01-07T12:18:45.383Z,-6.60
2023-01-07T12:21:31.948Z,-6.70
2023-01-07T12:24:01.847Z,-6.60
2023-01-07T12:26:34.542Z,-6.60
2023-01-07T12:29:39.633Z,-6.60
2023-01-07T12:32:15.407Z,-6.60
2023-01-07T12:35:18.362Z,-6.50
2023-01-07T12:38:06.227Z,-6.50
2023-01-07T12:40:35.612Z,-6.60
2023-01-07T12:43:18.448Z,-6.50
2023-01-07T12:45:48.323Z,-6.40
2023-01-07T12:48:45.209Z,-6.50
2023-01-07T12:51:20.737Z,-6.40
2023-01-07T12:54:12.253Z,-6.40
2023-01-07T12:57:14.664Z,-6.50
2023-01-07T13:00:08.457Z,-6.50
2023-01-07T13:02:54.669Z,-6.60
2023-01-07T13:05:26.544Z,-6.60
2023-01-07T13:08:12.296Z,-6.60
2023-01-07T13:10:45.804Z,-6.50
2023-01-07T13:13:38.082Z,-6.70
2023-01-07T13:16:12.178Z,-6.70
2023-01-07T13:18:39.703Z,-6.80
2023-01-07T13:21:11.234Z,-6.80
2023-01-07T13:24:55.950Z,-6.80
2023-01-07T13:27:46.413Z,-6.90
2023-01-07T13:30:24.221Z,-6.90
2023-01-07T13:32:58.827Z,-6.70
2023-01-07T13:35:25.770Z,-6.70
2023-01-07T13:38:10.767Z,-6.70
2023-01-07T13:40:59.068Z,-6.80
2023-01-07T13:43:35.093Z,-6.90
2023-01-07T13:46:09.018Z,-7.10
2023-01-07T13:48:38.617Z,-6.90
2023-01-07T13:51:10.198Z,-7.10
2023-01-07T13:53:38.234Z,-6.90
2023-01-07T13:56:17.392Z,-6.90
2023-01-07T13:58:55.549Z,-6.90
2023-01-07T14:01:34.739Z,-7.10
2023-01-07T14:04:06.341Z,-7.00
2023-01-07T14:06:42.092Z,-7.00
2023-01-07T14:09:13.593Z,-7.00
2023-01-07T14:12:07.393Z,-7.00
2023-01-07T14:14:48.763Z,-7.00
2023-01-07T14:17:24.880Z,-7.10
2023-01-07T14:20:04.059Z,-7.10
2023-01-07T14:22:34.056Z,-7.00
2023-01-07T14:25:27.110Z,-7.10
2023-01-07T14:28:18.209Z,-7.00
2023-01-07T14:30:50.584Z,-7.10
2023-01-07T14:33:20.378Z,-7.20
2023-01-07T14:35:53.561Z,-7.20
2023-01-07T14:38:29.716Z,-7.00
2023-01-07T14:41:09.375Z,-7.10
2023-01-07T14:44:04.880Z,-7.00
2023-01-07T14:46:38.136Z,-7.10
2023-01-07T14:49:05.648Z,-7.10
2023-01-07T14:51:58.780Z,-7.10
2023-01-07T14:54:53.272Z,-7.20
2023-01-07T14:57:57.671Z,-7.10
2023-01-07T15:00:55.965Z,-7.20
2023-01-07T15:04:04.716Z,-7.20
2023-01-07T15:06:40.033Z,-7.20
2023-01-07T15:09:41.012Z,-7.30
2023-01-07T15:12:37.201Z,-7.20
2023-01-07T15:15:40.831Z,-7.30
2023-01-07T15:18:10.295Z,-7.20
2023-01-07T15:21:00.773Z,-7.20
2023-01-07T15:23:54.113Z,-7.00
2023-01-07T15:26:53.730Z,-7.00
2023-01-07T15:29:39.821Z,-7.10
2023-01-07T15:32:30.848Z,-7.10
2023-01-07T15:34:58.559Z,-7.00
2023-01-07T15:37:25.872Z,-6.90
2023-01-07T15:39:57.867Z,-7.00
2023-01-07T15:42:27.449Z,-6.80
2023-01-07T15:44:59.293Z,-6.80
2023-01-07T15:47:38.201Z,-6.80
2023-01-07T15:50:25.540Z,-6.80
2023-01-07T15:52:55.765Z,-6.80
2023-01-07T15:55:25.454Z,-6.80
2023-01-07T15:57:58.759Z,-6.70
2023-01-07T16:00:25.944Z,-6.80
2023-01-07T16:02:53.131Z,-6.70
2023-01-07T16:05:20.653Z,-6.70
2023-01-07T16:07:57.079Z,-6.70
